Hlavní strana
METAR-TAF:

METAR-TAF

Letiště :

Tri-City Airport

Parsons, Kansas, Spojené státy americké

zeměpisná šířka: 37-19-40N, zeměpisná délka: 095-30-15W, výška: 274 m

Aktuální stav počasí

Zpráva byla vytvořena před 1 hodinou a 3 minutami, v 10:52 UTC
Severoseverozápadní vítr 12 kt
Teplota 0°C
Vlhkost vzduchu 93%
Tlak 1015 hPa
Viditelnost: 14.5 km
Zataženo ve výšce 1200 ft

METAR: KPPF 241052Z AUTO 33012KT 9SM OVC012 00/M01 A2998 RMK AO2 SNE13 SLP156 P0000 T00001011

Čas: 05:55 (11:55 UTC)


TAF: chybějící

Stav a předpovědi počasí z více než 4 000 letišť (zprávy METAR a TAF).

Červené a žluté tečky na mapě představují dostupné meteorologické stanice.

Když kurzor umístíte na tečku, zobrazí se název stanice.

Pak kliknutím zobrazíte stav a předpověď počasí.

Chcete-li změnit mapu, kliknutím na zelené tlačítko se znaménkem +mapu přiblížíte, kliknutím na zelené tlačítko se znaménkem – mapu oddálíte a kliknutím na zelené šipky přejdete na sousední mapy.


METAR-TAF: